Time;durP1;ratioP1;P1;durP2;ratioP2;P2;SDS_P1;SDS_P2;PMS_P1;PMS_P2;Temp;Humidity;BMP_temperature;BMP_pressure;BME280_temperature;BME280_humidity;BME280_pressure;Samples;Min_cycle;Max_cycle;Signal;HPM_P1;HPM_P2
2021/03/05 00:00:34;;;;;;;58.80;27.20;;;;;;;9.10;58.22;99888.28;5134705;27;20058;-80
2021/03/05 00:03:00;;;;;;;57.22;26.98;;;;;;;9.04;58.33;99876.19;5135087;27;20019;-77
2021/03/05 00:05:26;;;;;;;49.10;26.02;;;;;;;9.08;57.77;99883.06;5116178;27;20109;-76
2021/03/05 00:07:52;;;;;;;54.25;26.60;;;;;;;9.08;58.40;99877.72;5135186;27;20096;-76
2021/03/05 00:10:24;;;;;;;54.53;24.73;;;;;;;9.03;58.23;99881.59;5134851;27;20038;-76
2021/03/05 00:12:50;;;;;;;53.78;27.33;;;;;;;8.97;58.33;99871.31;5134608;27;20024;-76
2021/03/05 00:15:15;;;;;;;52.83;26.67;;;;;;;8.95;57.80;99860.78;5116273;27;20366;-75
2021/03/05 00:17:41;;;;;;;51.95;26.48;;;;;;;9.02;57.97;99882.56;5115931;27;20027;-75
2021/03/05 00:20:18;;;;;;;52.90;26.85;;;;;;;8.93;58.23;99881.28;5134316;27;20035;-74
2021/03/05 00:22:43;;;;;;;53.35;25.65;;;;;;;8.94;57.96;99875.03;5115722;27;20389;-75
2021/03/05 00:25:10;;;;;;;51.10;25.27;;;;;;;8.80;58.54;99864.34;5134646;27;20027;-75
2021/03/05 00:27:36;;;;;;;49.78;25.25;;;;;;;8.79;58.68;99875.94;5134203;27;20381;-74
2021/03/05 00:30:04;;;;;;;49.60;24.50;;;;;;;8.72;58.49;99874.59;5116160;27;20027;-75
2021/03/05 00:32:30;;;;;;;54.17;25.25;;;;;;;8.69;58.40;99869.47;5115366;27;20034;-76
2021/03/05 00:34:56;;;;;;;53.92;25.27;;;;;;;8.66;59.01;99877.59;5134228;27;20030;-75
2021/03/05 00:37:21;;;;;;;56.65;25.90;;;;;;;8.90;58.78;99873.50;5115788;27;20020;-75
2021/03/05 00:39:47;;;;;;;52.53;25.98;;;;;;;8.72;59.63;99874.59;5114942;27;20063;-75
2021/03/05 00:42:12;;;;;;;52.60;26.98;;;;;;;8.66;60.36;99873.13;5134086;27;20080;-75
2021/03/05 00:44:38;;;;;;;53.05;26.40;;;;;;;8.55;60.65;99864.91;5115481;27;20027;-75
2021/03/05 00:47:04;;;;;;;54.13;26.55;;;;;;;8.51;60.59;99858.94;5115769;27;20035;-75
2021/03/05 00:49:29;;;;;;;56.30;26.42;;;;;;;8.35;60.71;99849.28;5133722;27;20088;-75
2021/03/05 00:51:55;;;;;;;50.83;27.73;;;;;;;8.42;61.11;99872.75;5133787;27;20031;-75
2021/03/05 00:54:20;;;;;;;56.03;28.15;;;;;;;8.49;60.17;99868.81;5134007;27;20027;-75
2021/03/05 00:56:46;;;;;;;57.63;28.63;;;;;;;8.43;60.42;99863.84;5098626;27;20092;-75
2021/03/05 00:59:11;;;;;;;56.28;28.13;;;;;;;8.49;59.99;99857.28;5133638;27;20058;-73
2021/03/05 01:01:37;;;;;;;56.17;28.52;;;;;;;8.43;60.25;99849.69;5133580;27;20467;-74
2021/03/05 01:04:03;;;;;;;59.75;29.02;;;;;;;8.54;59.71;99849.91;5098633;28;20381;-73
2021/03/05 01:06:28;;;;;;;53.90;27.45;;;;;;;8.47;60.25;99852.06;5133545;28;20096;-77
2021/03/05 01:08:53;;;;;;;54.85;27.77;;;;;;;8.48;59.70;99867.06;5115382;28;20050;-74
2021/03/05 01:11:19;;;;;;;56.20;28.45;;;;;;;8.39;60.59;99862.28;5133689;27;20114;-74
2021/03/05 01:13:45;;;;;;;54.17;28.48;;;;;;;8.37;60.68;99864.19;5133412;28;20027;-74
2021/03/05 01:16:10;;;;;;;56.60;27.48;;;;;;;8.29;60.79;99853.94;5133646;28;20034;-74
2021/03/05 01:18:36;;;;;;;53.08;27.08;;;;;;;8.34;60.06;99853.69;5133347;27;20452;-74
2021/03/05 01:21:02;;;;;;;58.78;28.52;;;;;;;8.41;60.13;99855.09;5133792;27;20039;-74
2021/03/05 01:23:28;;;;;;;57.10;27.52;;;;;;;8.28;60.71;99851.38;5133763;28;20035;-74
2021/03/05 01:25:53;;;;;;;56.78;28.05;;;;;;;8.19;61.30;99841.28;5133840;28;20039;-74
2021/03/05 01:28:19;;;;;;;50.20;27.33;;;;;;;8.22;60.78;99838.47;5133696;28;20023;-74
2021/03/05 01:30:45;;;;;;;56.30;27.27;;;;;;;8.36;60.08;99837.69;5133205;28;20110;-74
2021/03/05 01:33:11;;;;;;;55.47;27.23;;;;;;;8.40;59.70;99842.75;5133388;27;20027;-74
2021/03/05 01:35:36;;;;;;;58.63;27.30;;;;;;;8.25;60.24;99833.81;5133221;28;20023;-74
2021/03/05 01:38:02;;;;;;;52.05;28.15;;;;;;;8.19;60.62;99834.16;5133569;28;20046;-74
2021/03/05 01:40:34;;;;;;;57.78;28.58;;;;;;;8.30;60.04;99829.13;5115229;28;20023;-74
2021/03/05 01:43:00;;;;;;;53.40;28.00;;;;;;;8.13;60.13;99809.75;5133543;27;20458;-74
2021/03/05 01:45:29;;;;;;;59.40;29.05;;;;;;;8.18;61.06;99828.94;5115361;28;20399;-75
2021/03/05 01:48:03;;;;;;;61.75;29.90;;;;;;;8.10;61.18;99829.38;5132862;28;20039;-75
2021/03/05 01:50:37;;;;;;;60.40;29.88;;;;;;;8.08;61.43;99831.25;5133535;27;20019;-76
2021/03/05 01:53:06;;;;;;;63.38;29.67;;;;;;;7.97;62.04;99823.91;5137402;27;20106;-75
2021/03/05 01:55:32;;;;;;;59.13;28.92;;;;;;;7.99;61.84;99826.47;5118856;27;20027;-76
2021/03/05 01:57:58;;;;;;;59.03;29.10;;;;;;;7.92;61.67;99823.31;5137220;27;20042;-75
2021/03/05 02:00:39;;;;;;;56.33;27.67;;;;;;;7.82;62.20;99819.47;5101628;27;20051;-76
2021/03/05 02:03:05;;;;;;;54.33;27.58;;;;;;;7.92;62.00;99823.31;5137240;27;20015;-73
2021/03/05 02:05:31;;;;;;;57.42;28.60;;;;;;;7.80;62.03;99801.88;5136992;27;20023;-74
2021/03/05 02:07:57;;;;;;;55.97;27.27;;;;;;;7.99;61.54;99819.34;5118670;27;20484;-71
2021/03/05 02:10:22;;;;;;;54.45;26.90;;;;;;;7.96;62.24;99829.31;5136922;27;20027;-72
2021/03/05 02:12:48;;;;;;;57.08;28.80;;;;;;;7.80;62.61;99812.50;5136646;27;20027;-76
2021/03/05 02:15:14;;;;;;;48.83;25.77;;;;;;;7.74;62.40;99803.09;5137137;27;20046;-76
2021/03/05 02:18:03;;;;;;;53.85;28.33;;;;;;;7.80;61.98;99813.34;5122543;27;20031;-79
2021/03/05 02:21:06;;;;;;;52.90;27.63;;;;;;;7.73;62.57;99804.03;5133755;27;20042;-80
2021/03/05 02:23:50;;;;;;;55.78;27.42;;;;;;;7.69;62.75;99803.34;5137606;27;20149;-81
2021/03/05 02:26:54;;;;;;;57.13;27.42;;;;;;;7.57;63.54;99797.84;5118598;27;20173;-80
2021/03/05 02:29:22;;;;;;;58.15;27.60;;;;;;;7.56;63.48;99801.44;5137186;27;20031;-79
2021/03/05 02:31:50;;;;;;;56.83;28.33;;;;;;;7.61;63.27;99802.03;5136782;27;20027;-78
2021/03/05 02:34:32;;;;;;;55.30;26.88;;;;;;;7.62;63.26;99798.44;5136916;27;20389;-78
2021/03/05 02:37:01;;;;;;;55.13;28.83;;;;;;;7.65;63.07;99803.59;5136531;27;20031;-76
2021/03/05 02:39:39;;;;;;;56.42;28.23;;;;;;;7.57;63.20;99798.72;5136034;27;20039;-75
2021/03/05 02:42:08;;;;;;;59.28;29.05;;;;;;;7.55;63.25;99799.75;5136784;27;20101;-78
2021/03/05 02:44:40;;;;;;;62.13;30.55;;;;;;;7.52;63.42;99791.94;5118417;27;20037;-78
2021/03/05 02:47:09;;;;;;;60.33;30.13;;;;;;;7.52;63.38;99794.59;5118080;27;20019;-77
2021/03/05 02:49:39;;;;;;;55.13;27.90;;;;;;;7.61;62.50;99788.78;5136768;27;20023;-78
2021/03/05 02:52:10;;;;;;;57.25;27.60;;;;;;;7.61;62.56;99791.41;5136471;27;20023;-77
2021/03/05 02:54:37;;;;;;;51.53;27.45;;;;;;;7.57;62.62;99788.09;5135977;27;20034;-78
2021/03/05 02:57:06;;;;;;;56.45;27.35;;;;;;;7.51;63.08;99787.56;5117680;27;20027;-75
2021/03/05 02:59:33;;;;;;;55.20;26.73;;;;;;;7.61;62.10;99788.78;5135681;27;20065;-76
2021/03/05 03:02:00;;;;;;;53.50;27.05;;;;;;;7.58;62.43;99773.03;5135932;27;20028;-77
2021/03/05 03:04:28;;;;;;;56.38;26.85;;;;;;;7.64;62.22;99781.50;5116853;27;20120;-75
2021/03/05 03:06:55;;;;;;;53.33;26.25;;;;;;;7.63;61.80;99777.16;5135519;27;20027;-75
2021/03/05 03:09:22;;;;;;;48.22;25.45;;;;;;;7.54;62.02;99772.34;5135987;27;20038;-74
2021/03/05 03:11:48;;;;;;;51.55;25.95;;;;;;;7.51;62.14;99776.94;5117019;27;20023;-74
2021/03/05 03:14:15;;;;;;;51.95;26.35;;;;;;;7.40;62.23;99775.75;5135698;27;20149;-75
2021/03/05 03:16:42;;;;;;;47.63;26.05;;;;;;;7.36;62.82;99779.53;5135675;27;20023;-76
2021/03/05 03:19:12;;;;;;;51.33;26.17;;;;;;;7.28;63.10;99781.72;5135671;27;20106;-76
2021/03/05 03:21:38;;;;;;;50.03;25.15;;;;;;;7.25;63.16;99779.25;5135681;27;20068;-78
2021/03/05 03:24:06;;;;;;;51.53;26.00;;;;;;;7.17;63.46;99784.09;5136147;27;20035;-77
2021/03/05 03:26:35;;;;;;;52.78;26.63;;;;;;;7.17;63.77;99784.09;5135789;27;20054;-76
2021/03/05 03:29:00;;;;;;;52.38;26.25;;;;;;;7.13;63.61;99785.19;5116997;27;20030;-78
2021/03/05 03:31:26;;;;;;;52.40;26.65;;;;;;;7.11;63.87;99781.75;5135535;27;20031;-78
2021/03/05 03:33:52;;;;;;;47.42;25.63;;;;;;;7.13;63.70;99787.84;5135237;27;20534;-78
2021/03/05 03:36:19;;;;;;;55.30;26.65;;;;;;;7.14;63.96;99790.44;5135403;27;20076;-76
2021/03/05 03:38:46;;;;;;;49.17;25.63;;;;;;;7.10;64.28;99778.25;5135238;27;20438;-76
2021/03/05 03:41:15;;;;;;;50.90;25.92;;;;;;;7.05;64.33;99780.31;5117097;27;20114;-77
2021/03/05 03:43:41;;;;;;;51.38;25.40;;;;;;;7.06;64.49;99781.16;5135233;27;20031;-78
2021/03/05 03:46:08;;;;;;;57.28;27.17;;;;;;;7.03;64.53;99778.66;5135452;27;20033;-77
2021/03/05 03:48:37;;;;;;;51.83;26.55;;;;;;;7.01;64.58;99783.19;5135350;27;20015;-77
2021/03/05 03:51:07;;;;;;;54.33;26.88;;;;;;;7.03;64.40;99778.66;5134930;27;20027;-77
2021/03/05 03:53:35;;;;;;;53.70;25.98;;;;;;;7.02;64.54;99784.91;5116888;27;20076;-77
2021/03/05 03:56:03;;;;;;;53.75;27.02;;;;;;;7.10;64.12;99785.34;5135023;27;20038;-77
2021/03/05 03:58:30;;;;;;;55.28;25.63;;;;;;;7.03;64.54;99782.16;5135093;27;20034;-77
2021/03/05 04:01:00;;;;;;;51.28;25.50;;;;;;;7.05;64.48;99779.47;5116275;27;20075;-77
2021/03/05 04:03:29;;;;;;;53.85;25.85;;;;;;;7.10;64.68;99772.94;5135198;27;20059;-77
2021/03/05 04:05:57;;;;;;;55.38;26.77;;;;;;;7.06;64.56;99770.56;5116122;27;20118;-77
2021/03/05 04:08:23;;;;;;;52.30;25.73;;;;;;;7.14;64.14;99763.03;5134788;27;20441;-76
2021/03/05 04:10:50;;;;;;;57.50;25.80;;;;;;;7.07;64.40;99757.22;5134526;27;20152;-77
2021/03/05 04:13:16;;;;;;;51.78;25.77;;;;;;;7.16;64.12;99761.19;5099489;27;20441;-78
2021/03/05 04:15:42;;;;;;;52.55;24.63;;;;;;;7.14;64.30;99763.91;5133430;27;20049;-78
2021/03/05 04:18:08;;;;;;;51.35;25.52;;;;;;;7.24;63.72;99763.38;5116205;27;20027;-77
2021/03/05 04:20:39;;;;;;;49.45;24.98;;;;;;;7.24;63.55;99760.72;5116113;27;20031;-74
2021/03/05 04:23:06;;;;;;;51.05;25.80;;;;;;;7.15;63.91;99748.84;5133981;27;20059;-73
2021/03/05 04:25:32;;;;;;;48.83;24.40;;;;;;;7.18;63.72;99760.13;5115975;27;20031;-74
2021/03/05 04:27:57;;;;;;;51.20;25.15;;;;;;;7.15;63.97;99760.31;5134061;27;20031;-74
2021/03/05 04:30:24;;;;;;;47.13;23.25;;;;;;;7.18;63.85;99748.69;5116120;27;20043;-73
2021/03/05 04:32:49;;;;;;;43.42;23.67;;;;;;;7.18;63.82;99762.78;5133875;27;20051;-74
2021/03/05 04:35:15;;;;;;;50.70;25.10;;;;;;;7.12;63.43;99756.94;5116065;27;20507;-75
2021/03/05 04:37:40;;;;;;;49.67;24.45;;;;;;;7.18;63.69;99765.44;5115619;27;20099;-74
2021/03/05 04:40:08;;;;;;;49.10;24.92;;;;;;;7.18;63.62;99760.13;5115593;27;20035;-74
2021/03/05 04:42:34;;;;;;;48.53;23.67;;;;;;;7.28;62.68;99754.34;5115991;27;20064;-73
2021/03/05 04:45:00;;;;;;;49.15;24.20;;;;;;;7.20;62.75;99744.13;5115396;27;20027;-74
2021/03/05 04:47:26;;;;;;;49.83;24.20;;;;;;;7.25;62.43;99754.53;5133883;27;20439;-76
2021/03/05 04:49:52;;;;;;;43.83;22.83;;;;;;;7.28;61.40;99751.69;5133687;27;20023;-76
2021/03/05 04:52:17;;;;;;;48.45;22.92;;;;;;;7.29;61.22;99748.94;5133909;27;20050;-77
2021/03/05 04:54:43;;;;;;;44.60;22.90;;;;;;;7.26;61.41;99761.53;5115726;27;20057;-81
2021/03/05 04:57:08;;;;;;;48.22;22.48;;;;;;;7.35;60.58;99743.31;5134450;27;20042;-77
2021/03/05 04:59:34;;;;;;;46.05;22.13;;;;;;;7.31;60.59;99749.72;5133957;27;20568;-77
2021/03/05 05:01:59;;;;;;;46.60;21.40;;;;;;;7.40;60.27;99748.34;5098348;28;20027;-74
2021/03/05 05:04:25;;;;;;;44.88;21.67;;;;;;;7.40;60.49;99759.81;5133740;27;20031;-74
2021/03/05 05:06:50;;;;;;;43.15;21.40;;;;;;;7.35;60.55;99755.72;5133363;28;20088;-76
2021/03/05 05:09:16;;;;;;;46.17;21.33;;;;;;;7.32;60.66;99755.88;5115587;28;20473;-74
2021/03/05 05:11:41;;;;;;;46.63;21.88;;;;;;;7.22;60.84;99752.00;5115470;28;20023;-74
2021/03/05 05:14:07;;;;;;;40.35;20.38;;;;;;;7.23;60.70;99765.19;5115225;28;20054;-75
2021/03/05 05:16:32;;;;;;;43.75;20.92;;;;;;;7.17;61.15;99765.53;5115327;28;20381;-74
2021/03/05 05:18:58;;;;;;;47.10;22.80;;;;;;;7.12;61.59;99762.25;5133540;28;20027;-79
2021/03/05 05:21:23;;;;;;;43.90;20.70;;;;;;;7.09;62.10;99755.34;5133756;28;20172;-81
2021/03/05 05:23:50;;;;;;;49.38;22.90;;;;;;;7.08;62.05;99753.63;5098174;28;20030;-81
2021/03/05 05:26:16;;;;;;;39.75;20.55;;;;;;;7.16;61.73;99763.81;5083141;27;20023;-81
2021/03/05 05:28:41;;;;;;;44.60;22.25;;;;;;;7.12;61.75;99759.59;5119422;27;20066;-77
2021/03/05 05:31:07;;;;;;;51.10;22.38;;;;;;;7.12;61.75;99762.25;5137538;27;20050;-71
2021/03/05 05:33:33;;;;;;;47.45;21.95;;;;;;;7.14;61.95;99763.03;5137741;27;20046;-73
2021/03/05 05:35:58;;;;;;;47.10;21.58;;;;;;;7.10;61.54;99757.03;5119073;27;20530;-78
2021/03/05 05:38:23;;;;;;;47.00;22.20;;;;;;;7.14;61.25;99747.13;5127466;27;20039;-78
2021/03/05 05:40:49;;;;;;;40.78;20.08;;;;;;;7.16;61.61;99767.34;5142749;27;20031;-79
2021/03/05 05:43:15;;;;;;;42.45;21.25;;;;;;;7.17;61.63;99757.56;5137944;27;20046;-77
2021/03/05 05:45:40;;;;;;;48.67;21.20;;;;;;;7.16;61.61;99754.06;5119651;27;20485;-78
2021/03/05 05:48:12;;;;;;;43.35;20.20;;;;;;;7.20;61.41;99760.06;5119188;27;20042;-76
2021/03/05 05:50:39;;;;;;;45.88;22.45;;;;;;;7.27;61.61;99766.75;5137528;27;20079;-76
2021/03/05 05:53:07;;;;;;;42.22;22.13;;;;;;;7.35;61.08;99766.34;5137163;27;20019;-77
2021/03/05 05:55:32;;;;;;;48.45;22.02;;;;;;;7.37;60.65;99761.81;5137921;27;20362;-77
2021/03/05 05:57:58;;;;;;;46.88;22.15;;;;;;;7.43;60.10;99761.44;5137280;27;20026;-77
2021/03/05 06:00:25;;;;;;;51.72;24.15;;;;;;;7.50;60.29;99768.13;5137215;27;20497;-76
2021/03/05 06:02:51;;;;;;;51.17;23.75;;;;;;;7.56;59.65;99770.47;5136971;27;20464;-79
2021/03/05 06:05:17;;;;;;;56.80;25.80;;;;;;;7.57;59.66;99769.50;5119448;27;20031;-79
2021/03/05 06:07:43;;;;;;;49.45;23.30;;;;;;;7.60;59.34;99769.34;5137187;27;20034;-77
2021/03/05 06:10:10;;;;;;;49.28;23.48;;;;;;;7.66;59.40;99773.47;5118670;27;20031;-75
2021/03/05 06:12:36;;;;;;;50.97;23.65;;;;;;;7.63;59.46;99776.28;5137279;27;20053;-84
2021/03/05 06:15:02;;;;;;;52.55;24.23;;;;;;;7.71;59.19;99769.59;5137008;27;20027;-83
2021/03/05 06:17:47;;;;;;;44.08;22.23;;;;;;;7.79;59.01;99776.28;5137153;27;20058;-83
2021/03/05 06:20:15;;;;;;;46.05;22.23;;;;;;;7.82;58.70;99774.31;5136767;27;20076;-85
2021/03/05 06:22:41;;;;;;;56.60;24.58;;;;;;;7.81;58.99;99779.69;5137115;27;20026;-83
2021/03/05 06:25:08;;;;;;;47.92;23.05;;;;;;;7.82;59.04;99792.91;5136670;27;20023;-82
2021/03/05 06:27:34;;;;;;;46.67;22.65;;;;;;;7.68;59.78;99779.53;5137304;27;20035;-83
2021/03/05 06:30:00;;;;;;;50.78;23.00;;;;;;;7.72;59.66;99787.25;5137204;27;20530;-82
2021/03/05 06:32:39;;;;;;;48.25;21.45;;;;;;;7.73;60.06;99788.13;5137025;27;20034;-82
2021/03/05 06:35:08;;;;;;;47.47;22.50;;;;;;;7.74;59.65;99789.81;5136442;27;20019;-80
2021/03/05 06:38:00;;;;;;;49.33;21.83;;;;;;;7.78;59.88;99793.16;5117241;27;20452;-83
2021/03/05 06:40:26;;;;;;;48.75;22.27;;;;;;;7.87;59.86;99808.56;5113598;27;20447;-83
2021/03/05 06:42:57;;;;;;;46.92;21.05;;;;;;;7.87;60.67;99809.41;5136489;27;20027;-82
2021/03/05 06:45:35;;;;;;;46.20;20.83;;;;;;;7.88;60.80;99819.09;5118013;27;20040;-78
2021/03/05 06:48:04;;;;;;;46.22;20.08;;;;;;;7.89;60.95;99826.13;5143618;27;20096;-77
2021/03/05 06:50:35;;;;;;;43.22;20.60;;;;;;;7.96;61.66;99832.81;5136389;27;20023;-77
2021/03/05 06:53:00;;;;;;;42.03;20.77;;;;;;;7.98;62.33;99830.06;5135758;27;20366;-79
2021/03/05 06:55:26;;;;;;;44.70;21.35;;;;;;;7.96;61.61;99826.66;5136521;27;20041;-83
2021/03/05 06:57:55;;;;;;;43.53;21.05;;;;;;;8.06;62.33;99834.94;5118896;27;20113;-73
2021/03/05 07:00:23;;;;;;;49.05;22.98;;;;;;;8.07;61.73;99829.53;5117351;27;20051;-75
2021/03/05 07:02:50;;;;;;;45.78;22.38;;;;;;;8.09;62.63;99826.81;5135949;27;20019;-74
2021/03/05 07:05:17;;;;;;;42.60;21.73;;;;;;;8.14;62.23;99822.09;5135642;27;20038;-74
2021/03/05 07:07:49;;;;;;;44.47;22.00;;;;;;;8.16;62.89;99822.84;5117543;27;20481;-74
2021/03/05 07:10:15;;;;;;;46.08;21.73;;;;;;;8.28;63.33;99838.09;5135542;27;20517;-74
2021/03/05 07:13:01;;;;;;;53.75;23.20;;;;;;;8.26;62.77;99821.38;5135788;27;20035;-76
2021/03/05 07:15:26;;;;;;;46.28;21.30;;;;;;;8.37;62.60;99831.44;5100597;27;20053;-75
2021/03/05 07:17:52;;;;;;;44.47;21.85;;;;;;;8.40;63.94;99837.44;5117438;27;20023;-71
2021/03/05 07:20:17;;;;;;;45.15;21.30;;;;;;;8.39;63.58;99824.22;5135603;27;20569;-79
2021/03/05 07:22:47;;;;;;;48.75;22.23;;;;;;;8.49;64.22;99839.56;5117822;27;20033;-79
2021/03/05 07:25:16;;;;;;;49.20;21.88;;;;;;;8.54;64.32;99833.97;5136018;27;20496;-77
2021/03/05 07:27:43;;;;;;;49.42;21.70;;;;;;;8.53;64.11;99837.59;5117175;27;20053;-77
2021/03/05 07:30:13;;;;;;;48.13;22.67;;;;;;;8.53;64.62;99840.25;5135143;27;20035;-77
2021/03/05 07:32:46;;;;;;;46.70;21.58;;;;;;;8.67;65.14;99834.94;5135373;27;20032;-77
2021/03/05 07:35:32;;;;;;;47.50;21.92;;;;;;;8.56;64.34;99835.59;5134958;27;20461;-78
2021/03/05 07:37:59;;;;;;;48.38;22.05;;;;;;;8.62;63.55;99820.25;5135089;27;20035;-79
2021/03/05 07:40:26;;;;;;;40.38;20.08;;;;;;;8.73;63.88;99828.44;5135100;27;20034;-80
2021/03/05 07:42:55;;;;;;;38.22;18.83;;;;;;;8.78;63.02;99826.34;5117093;27;20445;-78
2021/03/05 07:45:20;;;;;;;34.00;16.27;;;;;;;8.91;62.76;99827.34;5134778;27;20099;-80
2021/03/05 07:47:48;;;;;;;37.83;16.27;;;;;;;9.07;61.80;99832.56;5116915;27;20054;-79
2021/03/05 07:50:15;;;;;;;31.52;13.93;;;;;;;9.32;60.11;99832.78;5134499;27;20031;-77
2021/03/05 07:52:41;;;;;;;33.20;14.65;;;;;;;9.51;58.79;99835.16;5116421;27;20069;-75
2021/03/05 07:55:08;;;;;;;35.10;14.82;;;;;;;9.57;59.49;99829.47;5099301;27;20053;-75
2021/03/05 07:57:33;;;;;;;22.50;9.52;;;;;;;9.78;58.72;99837.91;5134792;27;20056;-74
2021/03/05 07:59:59;;;;;;;14.85;7.15;;;;;;;9.84;58.54;99840.16;5134521;27;20123;-78
2021/03/05 08:02:51;;;;;;;13.48;5.30;;;;;;;9.83;59.80;99832.28;5116562;27;20026;-75
2021/03/05 08:05:43;;;;;;;14.73;8.27;;;;;;;9.68;59.89;99836.78;5134345;27;20075;-76
2021/03/05 08:08:16;;;;;;;13.10;7.05;;;;;;;9.79;59.32;99838.78;5134202;27;20047;-75
2021/03/05 08:10:44;;;;;;;20.30;8.07;;;;;;;9.77;60.14;99827.38;5134786;27;20023;-75
2021/03/05 08:13:53;;;;;;;9.68;3.88;;;;;;;9.80;60.55;99843.16;5134093;27;20055;-76
2021/03/05 08:16:31;;;;;;;13.52;6.82;;;;;;;9.85;60.23;99838.41;5134140;27;20023;-75
2021/03/05 08:19:05;;;;;;;14.32;7.57;;;;;;;9.84;60.16;99841.97;5134410;27;20026;-74
2021/03/05 08:21:57;;;;;;;16.00;7.75;;;;;;;9.93;60.21;99849.38;5134356;27;20065;-74
2021/03/05 08:24:29;;;;;;;14.18;6.82;;;;;;;9.92;60.78;99842.34;5134034;27;20031;-76
2021/03/05 08:26:59;;;;;;;13.45;7.32;;;;;;;10.03;60.88;99850.50;5134384;27;20030;-73
2021/03/05 08:29:45;;;;;;;7.38;4.47;;;;;;;10.04;60.43;99841.59;5133998;27;20023;-74
2021/03/05 08:32:48;;;;;;;12.32;6.22;;;;;;;10.18;60.55;99848.69;5115429;27;20027;-75
2021/03/05 08:35:36;;;;;;;14.45;7.53;;;;;;;10.32;59.21;99838.84;5013980;28;20029;-74
2021/03/05 08:38:06;;;;;;;11.73;7.30;;;;;;;10.51;59.53;99845.63;5120297;27;20038;-76
2021/03/05 08:40:37;;;;;;;15.93;7.13;;;;;;;10.56;58.98;99849.72;5134156;27;20030;-75
2021/03/05 08:43:14;;;;;;;11.80;7.07;;;;;;;10.40;59.40;99869.47;5133877;27;20051;-77
2021/03/05 08:45:47;;;;;;;11.23;5.55;;;;;;;10.32;59.89;99852.19;5134072;27;20031;-76
2021/03/05 08:48:25;;;;;;;;;;;;;;;10.28;60.13;99845.34;5134411;27;20385;-75
2021/03/05 08:50:50;;;;;;;16.90;7.00;;;;;;;10.31;59.98;99846.94;5115608;27;20258;-75
2021/03/05 08:53:17;;;;;;;11.60;5.00;;;;;;;10.24;59.45;99827.84;5133568;27;20076;-75
2021/03/05 08:55:45;;;;;;;11.85;6.65;;;;;;;10.23;60.19;99842.13;5115523;27;20031;-73
2021/03/05 08:58:18;;;;;;;17.70;6.40;;;;;;;10.46;59.43;99848.63;5133428;27;20029;-76
2021/03/05 09:00:44;;;;;;;8.80;5.25;;;;;;;10.32;59.56;99846.84;5115257;28;20433;-74
2021/03/05 09:03:14;;;;;;;11.68;6.90;;;;;;;10.31;60.08;99854.94;5133412;27;20083;-75
2021/03/05 09:05:45;;;;;;;15.73;6.68;;;;;;;10.42;59.15;99847.13;5133859;27;20066;-76
2021/03/05 09:08:12;;;;;;;12.05;5.30;;;;;;;10.39;59.11;99851.78;5138478;28;20019;-76
2021/03/05 09:10:42;;;;;;;10.88;6.28;;;;;;;10.32;59.96;99849.50;5139940;28;20100;-75
2021/03/05 09:13:10;;;;;;;11.82;6.82;;;;;;;10.49;59.41;99847.56;5136215;27;20059;-75
2021/03/05 09:15:48;;;;;;;13.43;6.30;;;;;;;10.67;59.09;99851.66;5133794;28;20080;-75
2021/03/05 09:18:18;;;;;;;8.30;3.90;;;;;;;10.46;59.23;99850.44;5133340;28;20028;-75
2021/03/05 09:20:47;;;;;;;13.57;6.60;;;;;;;10.61;58.91;99860.06;5133799;28;20019;-74
2021/03/05 09:23:18;;;;;;;10.90;5.95;;;;;;;10.50;59.26;99857.25;5133263;28;20473;-75
2021/03/05 09:25:55;;;;;;;8.07;4.60;;;;;;;10.57;59.03;99856.75;5133916;27;20118;-75
2021/03/05 09:28:23;;;;;;;11.50;6.35;;;;;;;10.74;58.18;99860.13;5133393;28;20034;-74
2021/03/05 09:30:50;;;;;;;8.15;3.88;;;;;;;10.58;58.90;99861.13;5115298;28;20057;-75
2021/03/05 09:33:16;;;;;;;9.93;6.10;;;;;;;10.63;58.97;99860.00;5133210;28;20055;-74
2021/03/05 09:35:41;;;;;;;12.55;6.43;;;;;;;10.69;59.20;99856.91;5133517;28;20073;-74
2021/03/05 09:38:07;;;;;;;11.43;6.50;;;;;;;10.84;58.25;99848.72;5133211;28;20035;-74
2021/03/05 09:40:33;;;;;;;8.75;5.68;;;;;;;10.75;58.91;99854.69;5133400;28;20035;-74
2021/03/05 09:43:01;;;;;;;7.35;4.15;;;;;;;10.70;58.48;99862.13;5133362;28;20028;-75
2021/03/05 09:45:40;;;;;;;7.60;4.22;;;;;;;10.68;58.65;99864.03;5133189;28;20038;-75
2021/03/05 09:48:08;;;;;;;11.05;5.90;;;;;;;10.67;59.05;99857.00;5133263;27;20050;-76
2021/03/05 09:50:35;;;;;;;9.82;5.40;;;;;;;10.73;58.83;99861.94;5133262;28;20413;-75
2021/03/05 09:53:29;;;;;;;14.65;5.90;;;;;;;10.99;57.66;99861.97;5133194;28;20028;-74
2021/03/05 09:55:57;;;;;;;8.30;5.03;;;;;;;10.78;58.22;99869.63;5114923;28;20389;-75
2021/03/05 09:58:23;;;;;;;10.13;4.85;;;;;;;10.76;58.05;99877.72;5114624;28;20087;-75
2021/03/05 10:00:49;;;;;;;8.98;4.80;;;;;;;10.57;58.17;99893.25;5132989;28;20134;-74
2021/03/05 10:03:16;;;;;;;8.90;4.63;;;;;;;10.56;58.97;99881.72;5132936;27;20023;-75
2021/03/05 10:05:43;;;;;;;10.40;4.80;;;;;;;10.55;58.99;99900.50;5115046;28;20492;-75
2021/03/05 10:08:28;;;;;;;6.28;4.07;;;;;;;10.40;59.08;99894.34;5132975;28;20034;-77
2021/03/05 10:11:14;;;;;;;8.57;4.88;;;;;;;10.41;59.45;99887.19;5133348;28;20030;-75
2021/03/05 10:13:51;;;;;;;9.30;5.10;;;;;;;10.50;59.67;99879.44;5136066;27;20039;-75
2021/03/05 10:16:19;;;;;;;6.55;4.32;;;;;;;10.31;59.64;99873.59;5136392;27;20481;-76
2021/03/05 10:18:50;;;;;;;8.32;4.97;;;;;;;10.30;59.21;99893.22;5136744;27;20027;-75
2021/03/05 10:21:17;;;;;;;9.27;5.28;;;;;;;10.45;58.69;99897.56;5118930;27;20167;-75
2021/03/05 10:23:43;;;;;;;7.85;3.75;;;;;;;10.56;59.05;99887.06;5136660;27;20533;-75
2021/03/05 10:26:24;;;;;;;11.77;5.55;;;;;;;10.69;58.36;99884.41;5118648;27;20049;-76
2021/03/05 10:29:08;;;;;;;8.20;4.97;;;;;;;10.74;58.65;99884.13;5136027;27;20042;-75
2021/03/05 10:31:50;;;;;;;5.78;3.95;;;;;;;10.69;58.73;99903.09;5117856;27;20039;-75
2021/03/05 10:34:31;;;;;;;8.13;5.05;;;;;;;10.73;58.83;99888.63;5117745;27;20027;-75
2021/03/05 10:37:01;;;;;;;7.25;4.50;;;;;;;10.89;58.44;99899.09;5136611;27;20504;-75
2021/03/05 10:39:36;;;;;;;8.27;3.97;;;;;;;11.01;57.36;99894.78;5136636;27;20123;-75
2021/03/05 10:42:04;;;;;;;7.95;4.60;;;;;;;10.85;57.92;99909.13;5137810;27;20534;-75
2021/03/05 10:44:31;;;;;;;10.85;6.35;;;;;;;10.95;58.28;99903.19;5136851;27;20023;-76
2021/03/05 10:47:02;;;;;;;6.47;3.78;;;;;;;10.74;58.42;99898.31;5137057;27;20076;-77
2021/03/05 10:49:28;;;;;;;7.07;4.55;;;;;;;10.73;58.49;99893.09;5137479;27;20026;-76
2021/03/05 10:51:55;;;;;;;9.68;5.80;;;;;;;10.82;58.45;99893.34;5101866;27;20027;-75
2021/03/05 10:54:20;;;;;;;11.85;6.53;;;;;;;10.95;57.96;99901.38;5136091;27;20385;-74
2021/03/05 10:56:53;;;;;;;12.32;6.00;;;;;;;10.81;58.21;99915.66;5136038;27;20027;-76
2021/03/05 10:59:20;;;;;;;14.40;7.87;;;;;;;10.96;57.72;99907.56;5117204;27;20078;-74
2021/03/05 11:01:52;;;;;;;11.85;6.50;;;;;;;11.06;57.56;99898.81;5136094;27;20658;-76
2021/03/05 11:04:18;;;;;;;13.90;6.65;;;;;;;11.13;57.78;99924.16;5117980;27;20019;-75
2021/03/05 11:06:46;;;;;;;20.70;11.15;;;;;;;11.24;57.93;99933.25;5135958;27;20038;-77
2021/03/05 11:09:12;;;;;;;28.67;16.27;;;;;;;11.02;59.00;99931.19;5135787;27;20504;-76
2021/03/05 11:11:37;;;;;;;34.22;18.50;;;;;;;10.58;60.25;99937.63;5135433;27;20027;-74
2021/03/05 11:14:03;;;;;;;37.70;20.08;;;;;;;10.63;60.47;99943.53;5135892;27;20067;-75
2021/03/05 11:16:29;;;;;;;40.80;21.90;;;;;;;10.76;60.20;99944.44;5135384;27;20023;-75
2021/03/05 11:18:54;;;;;;;40.53;21.08;;;;;;;10.49;60.34;99946.22;5117417;27;20023;-74
2021/03/05 11:21:21;;;;;;;37.95;20.75;;;;;;;10.34;61.03;99965.88;5135284;27;20033;-75
2021/03/05 11:23:47;;;;;;;44.08;22.13;;;;;;;10.19;61.07;99973.84;5135010;27;20102;-76
2021/03/05 11:26:12;;;;;;;38.35;18.50;;;;;;;9.80;61.40;99950.53;5135445;27;20102;-74
2021/03/05 11:28:39;;;;;;;31.67;17.77;;;;;;;10.00;60.50;99983.94;5134998;27;20119;-75
2021/03/05 11:31:05;;;;;;;34.50;17.52;;;;;;;9.79;61.49;99975.47;5135543;27;20362;-75
2021/03/05 11:33:30;;;;;;;31.20;17.25;;;;;;;9.67;61.42;99966.44;5135080;27;20027;-75
2021/03/05 11:35:56;;;;;;;33.65;18.83;;;;;;;9.66;61.42;99986.03;5135369;27;20080;-74